Time;durP1;ratioP1;P1;durP2;ratioP2;P2;SDS_P1;SDS_P2;PMS_P1;PMS_P2;Temp;Humidity;BMP_temperature;BMP_pressure;BME280_temperature;BME280_humidity;BME280_pressure;Samples;Min_cycle;Max_cycle;Signal;HPM_P1;HPM_P2
2022/06/22 00:01:28;;;;;;;5.57;2.30;;;;;;;16.68;54.69;100580.50;5020843;28;20109;-72
2022/06/22 00:03:59;;;;;;;4.85;2.10;;;;;;;16.63;54.90;100588.88;4979897;28;20050;-72
2022/06/22 00:06:45;;;;;;;7.10;3.05;;;;;;;16.60;54.82;100588.28;5005051;28;20050;-72
2022/06/22 00:09:32;;;;;;;6.05;2.42;;;;;;;16.53;55.68;100587.97;5017993;28;20061;-73
2022/06/22 00:12:00;;;;;;;4.75;2.10;;;;;;;16.49;55.96;100583.88;4993850;28;20269;-72
2022/06/22 00:14:48;;;;;;;4.70;2.65;;;;;;;16.45;56.34;100583.28;5010995;28;20053;-73
2022/06/22 00:17:34;;;;;;;8.90;2.78;;;;;;;16.42;57.35;100588.00;5005545;28;20126;-75
2022/06/22 00:20:27;;;;;;;7.88;3.35;;;;;;;16.38;56.95;100587.41;4989613;28;20066;-73
2022/06/22 00:23:16;;;;;;;6.85;2.60;;;;;;;16.33;57.17;100589.63;5006238;28;20045;-74
2022/06/22 00:25:44;;;;;;;5.47;2.80;;;;;;;16.29;57.02;100597.97;5008602;28;20065;-73
2022/06/22 00:28:30;;;;;;;4.30;2.05;;;;;;;16.27;56.44;100597.28;4972147;28;20081;-73
2022/06/22 00:31:12;;;;;;;3.75;2.20;;;;;;;16.25;56.76;100601.84;4989873;28;20042;-72
2022/06/22 00:34:08;;;;;;;6.43;1.95;;;;;;;16.18;56.61;100597.06;5011343;28;20058;-72
2022/06/22 00:36:47;;;;;;;3.88;1.95;;;;;;;16.12;57.26;100604.69;5004571;28;20445;-72
2022/06/22 00:39:25;;;;;;;5.00;1.80;;;;;;;16.07;57.64;100599.75;5003226;28;20053;-73
2022/06/22 00:42:00;;;;;;;2.67;1.83;;;;;;;16.03;58.02;100601.00;5007243;28;20053;-73
2022/06/22 00:44:31;;;;;;;4.65;2.00;;;;;;;15.97;58.26;100593.50;5008251;28;20424;-73
2022/06/22 00:47:00;;;;;;;6.78;1.75;;;;;;;15.93;57.37;100594.72;4985365;28;20045;-73
2022/06/22 00:49:29;;;;;;;3.35;1.90;;;;;;;15.91;57.37;100599.34;5004448;28;20060;-72
2022/06/22 00:52:07;;;;;;;5.35;2.15;;;;;;;15.87;57.49;100593.44;5005824;28;20049;-73
2022/06/22 00:54:34;;;;;;;3.33;1.83;;;;;;;15.84;56.81;100591.00;5004794;28;20058;-72
2022/06/22 00:57:19;;;;;;;5.32;1.65;;;;;;;15.82;57.23;100594.78;5003147;28;20642;-72
2022/06/22 00:59:57;;;;;;;3.95;1.40;;;;;;;15.80;56.29;100596.69;4988557;28;20099;-70
2022/06/22 01:02:35;;;;;;;7.32;1.98;;;;;;;15.81;56.72;100595.75;4998445;28;20053;-71
2022/06/22 01:05:23;;;;;;;5.05;1.80;;;;;;;15.79;56.43;100589.72;4983362;28;20137;-73
2022/06/22 01:08:13;;;;;;;4.65;1.63;;;;;;;15.76;56.22;100582.84;5010401;28;20053;-70
2022/06/22 01:10:47;;;;;;;2.70;1.40;;;;;;;15.73;56.16;100583.09;4989084;28;20077;-71
2022/06/22 01:13:41;;;;;;;4.22;1.63;;;;;;;15.77;56.14;100581.03;5004284;28;20081;-72
2022/06/22 01:16:16;;;;;;;4.97;1.75;;;;;;;15.76;55.81;100585.50;4999102;28;20057;-72
2022/06/22 01:19:15;;;;;;;7.70;1.85;;;;;;;15.75;55.69;100580.31;5004172;28;20046;-71
2022/06/22 01:21:46;;;;;;;3.28;1.40;;;;;;;15.70;56.17;100584.19;4996500;28;20175;-72
2022/06/22 01:24:30;;;;;;;3.67;1.50;;;;;;;15.69;56.15;100579.84;4993595;28;20058;-70
2022/06/22 01:27:21;;;;;;;3.60;1.40;;;;;;;15.67;56.52;100576.47;5001909;28;20103;-71
2022/06/22 01:29:53;;;;;;;6.97;1.83;;;;;;;15.66;56.53;100577.44;4987608;28;20533;-71
2022/06/22 01:32:32;;;;;;;4.28;1.73;;;;;;;15.63;56.62;100572.34;5000119;28;20072;-74
2022/06/22 01:35:03;;;;;;;4.45;1.63;;;;;;;15.62;56.30;100577.78;4995636;28;20361;-72
2022/06/22 01:37:32;;;;;;;2.90;1.38;;;;;;;15.60;56.88;100574.41;5023397;28;20046;-71
2022/06/22 01:40:14;;;;;;;3.15;1.48;;;;;;;15.56;56.67;100568.50;4995539;28;20137;-70
2022/06/22 01:42:48;;;;;;;3.22;1.60;;;;;;;15.55;57.18;100565.97;4999725;28;20072;-72
2022/06/22 01:45:31;;;;;;;3.03;1.47;;;;;;;15.52;57.49;100560.91;4988901;28;20062;-73
2022/06/22 01:48:08;;;;;;;3.17;1.55;;;;;;;15.48;58.16;100565.63;5011277;28;20637;-71
2022/06/22 01:50:40;;;;;;;5.88;2.15;;;;;;;15.45;58.96;100566.72;5016923;28;20129;-72
2022/06/22 01:53:20;;;;;;;3.28;1.50;;;;;;;15.42;58.63;100558.16;4998725;28;20116;-73
2022/06/22 01:55:56;;;;;;;4.50;2.00;;;;;;;15.39;58.83;100556.59;5018678;28;20056;-72
2022/06/22 01:58:35;;;;;;;3.88;1.55;;;;;;;15.38;58.94;100557.56;5002267;28;20081;-70
2022/06/22 02:01:11;;;;;;;3.10;1.60;;;;;;;15.36;58.64;100558.66;4988344;28;20057;-71
2022/06/22 02:03:47;;;;;;;3.53;1.60;;;;;;;15.34;59.55;100557.94;5002625;28;20049;-72
2022/06/22 02:10:03;;;;;;;7.15;2.05;;;;;;;15.27;60.11;100546.97;4999094;28;20062;-73
2022/06/22 02:12:35;;;;;;;3.75;1.80;;;;;;;15.22;60.07;100541.19;4987006;28;20038;-74
2022/06/22 02:15:24;;;;;;;4.43;2.10;;;;;;;15.15;60.63;100546.13;4998171;28;20066;-75
2022/06/22 02:17:52;;;;;;;4.05;1.52;;;;;;;15.10;60.37;100540.34;4983447;28;20073;-72
2022/06/22 02:20:19;;;;;;;5.47;1.75;;;;;;;15.07;60.86;100545.03;4987474;28;20981;-73
2022/06/22 02:22:47;;;;;;;4.28;1.52;;;;;;;15.04;60.79;100546.16;4997157;28;20050;-72
2022/06/22 02:25:15;;;;;;;5.72;1.60;;;;;;;14.99;61.58;100547.44;5002417;28;20061;-70
2022/06/22 02:27:42;;;;;;;4.15;1.80;;;;;;;14.96;61.90;100559.16;5005298;28;20497;-70
2022/06/22 02:30:10;;;;;;;5.65;2.03;;;;;;;14.92;62.23;100547.09;5008574;28;20054;-71
2022/06/22 02:32:43;;;;;;;5.30;1.95;;;;;;;14.89;62.25;100553.47;5003847;28;20052;-70
2022/06/22 02:35:12;;;;;;;5.72;2.00;;;;;;;14.88;62.60;100548.31;5008709;28;20088;-71
2022/06/22 02:38:02;;;;;;;3.60;1.80;;;;;;;14.85;62.75;100544.06;5022538;28;20581;-70
2022/06/22 02:40:32;;;;;;;4.03;2.03;;;;;;;14.82;63.22;100546.16;4995643;28;20049;-71
2022/06/22 02:45:45;;;;;;;5.82;1.83;;;;;;;14.76;64.05;100544.78;5006839;28;20105;-70
2022/06/22 02:48:28;;;;;;;5.57;1.83;;;;;;;14.76;63.82;100549.25;4987681;28;20053;-69
2022/06/22 02:51:07;;;;;;;5.50;1.70;;;;;;;14.76;63.71;100550.09;4999499;28;20038;-70
2022/06/22 02:53:37;;;;;;;5.43;2.13;;;;;;;14.75;64.58;100547.56;4986141;28;20048;-69
2022/06/22 02:56:07;;;;;;;4.97;2.05;;;;;;;14.71;64.20;100544.31;5007326;28;20570;-69
2022/06/22 02:58:36;;;;;;;12.25;1.85;;;;;;;14.72;64.54;100539.84;4991246;28;20053;-70
2022/06/22 03:01:12;;;;;;;4.05;1.75;;;;;;;14.69;65.00;100548.91;5007064;28;20061;-70
2022/06/22 03:03:40;;;;;;;;;;;;;;;14.65;64.90;100542.97;4989383;28;20081;-70
2022/06/22 03:06:09;;;;;;;4.45;2.00;;;;;;;14.63;65.13;100544.06;4990681;28;19929;-70
2022/06/22 03:08:37;;;;;;;8.43;2.00;;;;;;;14.63;65.01;100536.97;4991204;28;20050;-70
2022/06/22 03:11:06;;;;;;;3.97;1.63;;;;;;;14.60;65.03;100534.56;4988959;28;20054;-71
2022/06/22 03:13:39;;;;;;;6.07;1.80;;;;;;;14.59;65.97;100538.16;4988596;28;20065;-71
2022/06/22 03:16:10;;;;;;;3.47;1.50;;;;;;;14.59;65.82;100535.53;5003294;28;20056;-70
2022/06/22 03:18:41;;;;;;;4.38;1.80;;;;;;;14.59;66.08;100535.53;5019190;28;20060;-70
2022/06/22 03:21:12;;;;;;;3.50;2.00;;;;;;;14.60;66.00;100537.19;4999420;28;20535;-70
2022/06/22 03:24:08;;;;;;;3.67;1.70;;;;;;;14.64;65.56;100535.16;4989935;28;20066;-69
2022/06/22 03:26:39;;;;;;;4.88;1.90;;;;;;;14.70;65.19;100529.38;5000462;28;20489;-70
2022/06/22 03:29:16;;;;;;;7.60;2.55;;;;;;;14.76;65.13;100525.41;5006266;28;20050;-70
2022/06/22 03:31:47;;;;;;;7.43;2.00;;;;;;;14.80;64.80;100522.38;4988312;28;20050;-69
2022/06/22 03:34:19;;;;;;;2.85;1.70;;;;;;;14.86;64.56;100521.06;5012764;28;20053;-70
2022/06/22 03:36:51;;;;;;;3.50;2.25;;;;;;;14.92;64.59;100513.50;4999369;28;20053;-70
2022/06/22 03:39:21;;;;;;;4.07;2.30;;;;;;;14.96;64.16;100515.91;5007929;28;20069;-70
2022/06/22 03:41:51;;;;;;;5.22;2.25;;;;;;;14.99;64.19;100503.22;4989214;28;20061;-70
2022/06/22 03:44:33;;;;;;;6.10;2.28;;;;;;;15.02;63.88;100510.94;5011311;28;20053;-70
2022/06/22 03:47:23;;;;;;;13.65;2.65;;;;;;;15.06;63.72;100506.25;5008478;28;20066;-69
2022/06/22 03:49:59;;;;;;;5.15;1.88;;;;;;;15.08;63.61;100502.50;5013646;28;20061;-70
2022/06/22 03:52:50;;;;;;;4.72;2.28;;;;;;;15.11;63.72;100504.06;5007528;28;20065;-70
2022/06/22 03:55:23;;;;;;;9.32;2.38;;;;;;;15.14;63.98;100496.72;5007318;28;20053;-71
2022/06/22 03:57:52;;;;;;;5.80;1.95;;;;;;;15.14;64.03;100498.53;4997008;28;20064;-70
2022/06/22 04:00:20;;;;;;;7.20;2.05;;;;;;;15.17;63.77;100491.19;5003540;28;20053;-70
2022/06/22 04:02:48;;;;;;;5.78;2.38;;;;;;;15.18;63.92;100492.88;4989443;28;20067;-70
2022/06/22 04:05:22;;;;;;;5.72;2.03;;;;;;;15.21;64.04;100497.06;4987385;28;20483;-72
2022/06/22 04:07:50;;;;;;;5.38;1.67;;;;;;;15.23;64.23;100495.16;5006909;28;20050;-70
2022/06/22 04:10:40;;;;;;;2.63;1.85;;;;;;;15.27;63.98;100496.59;5006771;28;20631;-70
2022/06/22 04:13:19;;;;;;;3.80;1.77;;;;;;;15.31;64.05;100503.34;4989801;28;20543;-74
2022/06/22 04:15:52;;;;;;;4.18;1.63;;;;;;;15.35;64.06;100494.13;4986685;28;20066;-72
2022/06/22 04:18:22;;;;;;;4.35;2.22;;;;;;;15.39;63.96;100497.38;5005390;28;20056;-71
2022/06/22 04:20:56;;;;;;;3.67;1.92;;;;;;;15.44;64.43;100500.50;5004081;28;20072;-71
2022/06/22 04:23:38;;;;;;;7.25;2.65;;;;;;;15.45;64.03;100494.25;4966890;28;20681;-72
2022/06/22 04:26:20;;;;;;;4.93;2.17;;;;;;;15.50;63.97;100501.84;4999368;28;20141;-71
2022/06/22 04:28:51;;;;;;;7.85;2.00;;;;;;;15.58;63.29;100502.03;5003838;28;20065;-71
2022/06/22 04:31:31;;;;;;;5.00;2.10;;;;;;;15.63;63.74;100506.00;4988876;28;20080;-72
2022/06/22 04:34:23;;;;;;;12.15;2.22;;;;;;;15.70;63.24;100517.00;4993114;28;20484;-71
2022/06/22 04:36:53;;;;;;;7.63;2.38;;;;;;;15.75;63.18;100508.66;5007440;28;20049;-70
2022/06/22 04:39:27;;;;;;;3.97;2.17;;;;;;;15.81;63.44;100508.16;4988342;28;20038;-74
2022/06/22 04:41:54;;;;;;;3.10;2.00;;;;;;;15.88;63.32;100507.50;4999782;28;20046;-74
2022/06/22 04:44:28;;;;;;;5.57;2.17;;;;;;;15.94;63.26;100509.66;5006981;28;20618;-69
2022/06/22 04:47:06;;;;;;;6.93;2.47;;;;;;;16.00;63.02;100515.44;4987377;28;20046;-69
2022/06/22 04:49:37;;;;;;;6.35;2.38;;;;;;;16.07;64.11;100519.25;5000209;28;21848;-69
2022/06/22 04:52:10;;;;;;;9.50;2.35;;;;;;;16.12;63.05;100517.03;4991410;28;20065;-69
2022/06/22 04:54:40;;;;;;;5.25;2.60;;;;;;;16.17;62.85;100514.88;5004743;28;20037;-69
2022/06/22 04:57:22;;;;;;;4.13;1.73;;;;;;;16.25;62.93;100515.03;4999194;28;20050;-70
2022/06/22 04:59:49;;;;;;;2.90;1.80;;;;;;;16.32;62.41;100524.19;4983992;28;20081;-69
2022/06/22 05:02:19;;;;;;;6.10;2.05;;;;;;;16.35;61.94;100523.09;4994397;28;20715;-69
2022/06/22 05:04:51;;;;;;;7.32;2.33;;;;;;;16.43;62.29;100529.41;5010296;28;20058;-70
2022/06/22 05:07:42;;;;;;;6.25;2.67;;;;;;;16.49;62.40;100524.59;4999208;28;20129;-69
2022/06/22 05:10:29;;;;;;;4.20;2.35;;;;;;;16.58;62.10;100518.47;5006899;28;20053;-72
2022/06/22 05:13:03;;;;;;;4.43;2.10;;;;;;;16.68;61.76;100525.53;5003826;28;20061;-72
2022/06/22 05:15:35;;;;;;;4.70;2.65;;;;;;;16.74;61.55;100523.34;4998691;28;20061;-71
2022/06/22 05:18:05;;;;;;;5.20;2.42;;;;;;;16.81;61.57;100533.31;4996558;28;20097;-70
2022/06/22 05:20:55;;;;;;;5.25;2.40;;;;;;;16.90;61.24;100531.69;4970410;28;20056;-72
2022/06/22 05:23:23;;;;;;;4.82;2.08;;;;;;;16.98;61.12;100534.53;5002646;28;20124;-70
2022/06/22 05:26:00;;;;;;;3.75;2.17;;;;;;;17.08;61.01;100538.06;5003041;28;20112;-70
2022/06/22 05:28:43;;;;;;;5.35;2.13;;;;;;;17.16;60.68;100540.03;4979847;28;20145;-70
2022/06/22 05:31:15;;;;;;;8.35;2.88;;;;;;;17.23;60.58;100543.84;4981967;28;20054;-69
2022/06/22 05:33:46;;;;;;;3.70;2.03;;;;;;;17.33;60.48;100547.34;4994932;28;20117;-69
2022/06/22 05:36:17;;;;;;;6.82;2.30;;;;;;;17.42;60.21;100549.19;5000746;28;20121;-69
2022/06/22 05:38:47;;;;;;;5.70;2.22;;;;;;;17.51;60.26;100549.38;5009396;28;20137;-69
2022/06/22 05:41:17;;;;;;;6.25;2.55;;;;;;;17.58;59.72;100554.00;5002757;28;20125;-69
2022/06/22 05:43:46;;;;;;;5.50;2.90;;;;;;;17.70;59.90;100554.75;5006163;28;20049;-70
2022/06/22 05:46:14;;;;;;;8.25;2.67;;;;;;;17.76;59.74;100564.03;4983302;28;20580;-72
2022/06/22 05:48:46;;;;;;;6.07;2.78;;;;;;;17.86;59.65;100559.53;4999706;28;20120;-69
2022/06/22 05:51:41;;;;;;;5.32;2.60;;;;;;;17.99;59.58;100560.13;5007046;28;20575;-72
2022/06/22 05:54:16;;;;;;;9.98;2.47;;;;;;;18.06;59.16;100558.59;5006167;28;20053;-69
2022/06/22 05:56:54;;;;;;;5.93;2.57;;;;;;;18.18;58.85;100559.25;5005468;28;20054;-69
2022/06/22 05:59:27;;;;;;;9.77;3.22;;;;;;;18.30;58.85;100566.13;5005085;28;21128;-69
2022/06/22 06:02:00;;;;;;;4.68;2.28;;;;;;;18.43;58.50;100563.19;5009608;28;20554;-71
2022/06/22 06:04:33;;;;;;;5.13;2.20;;;;;;;18.56;58.17;100563.72;5007287;28;20517;-69
2022/06/22 06:07:10;;;;;;;6.75;3.05;;;;;;;18.68;58.23;100573.22;5000592;28;20050;-70
2022/06/22 06:09:37;;;;;;;5.43;2.63;;;;;;;18.79;57.71;100568.75;4997452;28;20074;-72
2022/06/22 06:12:14;;;;;;;5.28;2.40;;;;;;;18.92;57.31;100563.94;5000155;28;20508;-70
2022/06/22 06:14:46;;;;;;;11.10;2.60;;;;;;;19.04;55.92;100560.09;4997615;28;20164;-70
2022/06/22 06:17:27;;;;;;;9.98;2.83;;;;;;;19.10;56.13;100574.69;5003639;28;20077;-71
2022/06/22 06:19:56;;;;;;;8.98;3.25;;;;;;;19.22;55.24;100578.84;4988707;28;20049;-70
2022/06/22 06:22:24;;;;;;;8.27;2.88;;;;;;;19.33;54.46;100583.16;5005002;28;20061;-70
2022/06/22 06:27:51;;;;;;;10.73;2.92;;;;;;;19.52;53.90;100588.38;5002679;28;20844;-71
2022/06/22 06:30:23;;;;;;;7.18;2.60;;;;;;;19.68;53.62;100580.59;5005968;28;20125;-69
2022/06/22 06:32:57;;;;;;;13.75;2.80;;;;;;;19.81;52.48;100576.69;4999938;28;20058;-70
2022/06/22 06:35:30;;;;;;;6.47;3.17;;;;;;;19.87;51.89;100573.44;5005670;28;20065;-71
2022/06/22 06:38:04;;;;;;;7.25;2.40;;;;;;;19.99;51.52;100569.53;5009372;28;20050;-70
2022/06/22 06:41:01;;;;;;;9.50;2.00;;;;;;;20.18;50.40;100558.72;5002359;28;20098;-71
2022/06/22 06:43:58;;;;;;;7.93;2.53;;;;;;;20.35;49.49;100551.63;5017070;28;20089;-71
2022/06/22 06:46:33;;;;;;;6.53;2.72;;;;;;;20.48;49.05;100533.38;5008147;28;20057;-69
2022/06/22 06:49:29;;;;;;;6.90;1.88;;;;;;;20.63;48.38;100547.03;5006767;28;20060;-71
2022/06/22 06:52:02;;;;;;;8.30;1.92;;;;;;;20.77;47.78;100545.63;5010203;28;20057;-69
2022/06/22 06:54:36;;;;;;;7.07;2.40;;;;;;;20.90;46.50;100542.53;5002822;28;20424;-70
2022/06/22 06:57:09;;;;;;;6.53;2.53;;;;;;;20.97;46.42;100541.69;5002914;28;20081;-71
2022/06/22 06:59:39;;;;;;;7.95;2.15;;;;;;;21.12;46.60;100547.31;4988009;28;20060;-71
2022/06/22 07:02:14;;;;;;;8.75;1.70;;;;;;;21.27;45.96;100549.38;5007813;28;20124;-70
2022/06/22 07:04:44;;;;;;;5.47;2.22;;;;;;;21.41;45.61;100543.44;5003375;28;20157;-70
2022/06/22 07:07:32;;;;;;;6.38;1.98;;;;;;;21.49;43.01;100556.84;5007341;28;20133;-70
2022/06/22 07:10:05;;;;;;;7.43;1.50;;;;;;;21.52;42.39;100559.19;5002059;28;20053;-70
2022/06/22 07:12:40;;;;;;;9.20;1.92;;;;;;;21.57;42.40;100561.38;4999801;28;20050;-70
2022/06/22 07:15:15;;;;;;;7.07;2.17;;;;;;;21.58;41.95;100563.06;5006144;28;20081;-70
2022/06/22 07:17:45;;;;;;;4.72;2.05;;;;;;;21.60;41.68;100559.22;4987458;28;20229;-71
2022/06/22 07:20:21;;;;;;;5.93;1.50;;;;;;;21.65;42.24;100550.69;4989387;28;22007;-71
2022/06/22 07:22:59;;;;;;;7.53;2.10;;;;;;;21.75;41.99;100556.75;4998833;28;20045;-69
2022/06/22 07:25:39;;;;;;;9.68;2.33;;;;;;;21.90;41.83;100559.63;5007519;28;20078;-70
2022/06/22 07:28:14;;;;;;;7.35;1.77;;;;;;;22.01;40.57;100556.59;5009873;28;20437;-70
2022/06/22 07:31:02;;;;;;;7.15;1.90;;;;;;;22.18;40.80;100563.69;5001863;28;20049;-69
2022/06/22 07:33:34;;;;;;;3.53;1.58;;;;;;;22.37;41.06;100554.47;5007845;28;20056;-68
2022/06/22 07:36:10;;;;;;;5.25;2.15;;;;;;;22.48;40.19;100556.81;4973590;28;20111;-69
2022/06/22 07:38:43;;;;;;;8.02;2.15;;;;;;;22.63;40.24;100554.28;5006302;28;20064;-69
2022/06/22 07:41:18;;;;;;;7.65;1.70;;;;;;;22.67;39.35;100555.59;5020824;28;20038;-69
2022/06/22 07:44:00;;;;;;;5.15;1.58;;;;;;;22.72;39.30;100552.41;4993815;28;20049;-68
2022/06/22 07:46:35;;;;;;;4.97;1.67;;;;;;;22.80;39.00;100552.41;5016379;28;20461;-68
2022/06/22 07:49:11;;;;;;;9.95;2.30;;;;;;;22.82;37.35;100550.38;4990284;28;20440;-68
2022/06/22 07:51:44;;;;;;;4.40;1.75;;;;;;;22.71;37.00;100559.63;4986385;28;20955;-68
2022/06/22 07:54:21;;;;;;;6.15;1.70;;;;;;;22.66;37.15;100563.84;5008838;28;20050;-68
2022/06/22 07:57:04;;;;;;;7.65;2.15;;;;;;;22.74;37.51;100563.84;4986058;28;20669;-68
2022/06/22 07:59:47;;;;;;;7.53;1.70;;;;;;;22.79;36.95;100553.41;4990906;28;20052;-68
2022/06/22 08:02:23;;;;;;;6.50;1.95;;;;;;;22.85;37.00;100554.56;5001847;28;20540;-68
2022/06/22 08:05:01;;;;;;;14.20;1.90;;;;;;;22.83;36.79;100560.13;5009231;28;20053;-68
2022/06/22 08:07:46;;;;;;;5.07;1.85;;;;;;;22.87;37.04;100560.59;5005324;28;20073;-69
2022/06/22 08:10:21;;;;;;;8.18;1.55;;;;;;;23.00;37.16;100547.50;5000036;28;20042;-68
2022/06/22 08:12:51;;;;;;;6.45;1.50;;;;;;;22.99;37.20;100543.13;5000422;28;20081;-68
2022/06/22 08:15:20;;;;;;;6.38;2.05;;;;;;;23.14;36.75;100548.63;5020404;28;20034;-67
2022/06/22 08:17:53;;;;;;;6.30;1.90;;;;;;;23.18;36.60;100539.22;4987055;28;20054;-68
2022/06/22 08:20:23;;;;;;;6.55;1.77;;;;;;;23.19;36.36;100544.41;4984677;28;20049;-69
2022/06/22 08:22:51;;;;;;;8.52;2.17;;;;;;;23.23;36.43;100543.03;4998081;28;20069;-70
2022/06/22 08:25:38;;;;;;;10.32;2.22;;;;;;;23.32;36.44;100548.38;5006107;28;20053;-69
2022/06/22 08:28:06;;;;;;;5.45;1.60;;;;;;;23.39;36.32;100535.94;5007900;28;20053;-71
2022/06/22 08:30:33;;;;;;;3.67;1.65;;;;;;;23.25;36.22;100535.66;4999759;28;20041;-71
2022/06/22 08:33:08;;;;;;;6.22;1.38;;;;;;;23.29;35.41;100538.84;4999223;28;20065;-70
2022/06/22 08:35:42;;;;;;;6.18;1.85;;;;;;;23.33;35.81;100529.41;5006786;28;20056;-71
2022/06/22 08:38:16;;;;;;;5.22;2.08;;;;;;;23.38;35.69;100524.34;5001924;28;20245;-70
2022/06/22 08:40:55;;;;;;;5.47;1.83;;;;;;;23.41;35.51;100525.81;5000995;28;20050;-71
2022/06/22 08:43:29;;;;;;;4.90;1.73;;;;;;;23.42;35.81;100531.03;5007617;28;20046;-71
2022/06/22 08:46:34;;;;;;;6.20;2.13;;;;;;;23.44;35.20;100531.69;5003492;28;20149;-70
2022/06/22 08:49:39;;;;;;;6.35;1.60;;;;;;;23.48;35.29;100529.50;5012696;28;20050;-72
2022/06/22 08:52:34;;;;;;;4.38;1.52;;;;;;;23.57;35.64;100527.59;5005744;28;20423;-70
2022/06/22 08:55:48;;;;;;;10.02;1.85;;;;;;;23.77;35.03;100523.47;5005688;28;20054;-72
2022/06/22 08:58:27;;;;;;;7.72;1.70;;;;;;;23.78;34.80;100519.78;5010782;28;20136;-72
2022/06/22 09:01:03;;;;;;;11.82;2.13;;;;;;;23.85;35.22;100518.03;5004181;28;20042;-70
2022/06/22 09:03:43;;;;;;;8.73;2.00;;;;;;;24.03;35.21;100524.94;4999121;28;20412;-71
2022/06/22 09:06:44;;;;;;;6.72;1.83;;;;;;;24.32;35.16;100513.47;4985003;28;20065;-71
2022/06/22 09:09:31;;;;;;;7.03;1.77;;;;;;;24.48;34.73;100513.31;4985637;28;20064;-70
2022/06/22 09:12:10;;;;;;;12.98;1.70;;;;;;;24.65;33.49;100519.38;5007374;28;20057;-69
2022/06/22 09:14:49;;;;;;;6.60;1.40;;;;;;;24.62;32.65;100515.19;4988476;28;20465;-70
2022/06/22 09:17:26;;;;;;;9.93;2.05;;;;;;;24.59;32.49;100509.34;5000651;28;20646;-70
2022/06/22 09:19:56;;;;;;;7.75;1.80;;;;;;;24.64;32.79;100504.25;5000193;28;20045;-70
2022/06/22 09:22:34;;;;;;;5.82;1.60;;;;;;;24.77;33.28;100507.13;5007337;28;20062;-69
2022/06/22 09:25:31;;;;;;;3.72;1.70;;;;;;;24.95;33.05;100512.97;4998181;28;20136;-70
2022/06/22 09:28:17;;;;;;;4.88;1.85;;;;;;;25.09;32.79;100524.78;4969994;28;20047;-72
2022/06/22 09:30:50;;;;;;;5.55;1.17;;;;;;;25.30;32.29;100525.84;4986849;28;20065;-71
2022/06/22 09:34:07;;;;;;;7.53;1.20;;;;;;;25.17;30.67;100522.00;4987664;28;20050;-68
2022/06/22 09:37:02;;;;;;;4.93;1.50;;;;;;;25.17;31.29;100524.69;5002058;28;20052;-68
2022/06/22 09:39:30;;;;;;;4.27;1.53;;;;;;;25.21;31.02;100523.25;5013989;28;20060;-70
2022/06/22 09:42:00;;;;;;;4.97;1.80;;;;;;;25.15;29.47;100533.97;4997928;28;20041;-69
2022/06/22 09:44:33;;;;;;;3.75;1.42;;;;;;;25.05;30.20;100525.31;4998224;28;20053;-70
2022/06/22 09:47:03;;;;;;;3.85;1.40;;;;;;;25.19;30.29;100528.00;5001600;28;20048;-71
2022/06/22 09:49:43;;;;;;;6.63;1.60;;;;;;;25.27;30.45;100523.56;4999540;28;20435;-66
2022/06/22 09:52:36;;;;;;;3.58;1.10;;;;;;;25.35;29.84;100518.91;5003021;28;22212;-69
2022/06/22 09:58:25;;;;;;;4.43;1.02;;;;;;;25.43;28.74;100524.16;4990468;28;20058;-69
2022/06/22 10:01:22;;;;;;;3.88;1.23;;;;;;;25.44;27.40;100533.06;5006369;28;20041;-69
2022/06/22 10:04:08;;;;;;;3.63;0.90;;;;;;;25.51;28.70;100532.13;5013263;28;20068;-69
2022/06/22 10:06:49;;;;;;;3.63;1.38;;;;;;;25.74;27.86;100548.13;4999437;28;20769;-68
2022/06/22 10:09:52;;;;;;;5.47;1.40;;;;;;;25.76;27.48;100537.22;5005766;28;20073;-69
2022/06/22 10:12:37;;;;;;;4.90;1.42;;;;;;;26.00;27.38;100533.28;5006405;28;20496;-69
2022/06/22 10:15:43;;;;;;;5.22;1.63;;;;;;;26.01;26.69;100543.03;5003123;28;20048;-69
2022/06/22 10:18:29;;;;;;;;;;;;;;;26.33;25.99;100548.94;5005079;28;20240;-70
2022/06/22 10:21:21;;;;;;;4.72;1.25;;;;;;;26.56;24.62;100541.44;5007388;28;19922;-70
2022/06/22 10:24:00;;;;;;;4.95;1.20;;;;;;;26.81;24.80;100531.03;5015789;28;20057;-71
2022/06/22 10:26:36;;;;;;;4.82;1.10;;;;;;;27.07;25.40;100533.06;5000829;28;20073;-72
2022/06/22 10:29:12;;;;;;;4.22;1.52;;;;;;;27.26;25.86;100537.72;5008960;28;21107;-73
2022/06/22 10:31:46;;;;;;;4.47;1.50;;;;;;;27.45;26.23;100528.03;4996955;28;20054;-71
2022/06/22 10:34:25;;;;;;;3.45;0.90;;;;;;;27.58;25.36;100526.41;5009038;28;20535;-72
2022/06/22 10:37:23;;;;;;;4.40;1.20;;;;;;;27.56;24.63;100531.16;4995612;28;20056;-74
2022/06/22 10:39:55;;;;;;;4.00;1.10;;;;;;;27.60;25.26;100529.72;5005066;28;20053;-72
2022/06/22 10:45:41;;;;;;;4.03;1.00;;;;;;;28.06;25.79;100531.72;5003506;28;20046;-71
2022/06/22 10:48:27;;;;;;;6.25;1.83;;;;;;;28.15;24.76;100531.31;5000384;28;20066;-70
2022/06/22 10:51:11;;;;;;;3.90;1.15;;;;;;;28.07;24.30;100517.97;5002505;28;20042;-71
2022/06/22 10:53:57;;;;;;;6.32;1.35;;;;;;;28.06;24.75;100520.91;5003151;28;20054;-71
2022/06/22 10:56:47;;;;;;;2.65;1.15;;;;;;;28.05;24.44;100519.22;4996698;28;20054;-72
2022/06/22 10:59:51;;;;;;;2.20;1.27;;;;;;;28.10;24.11;100528.41;5002263;28;20069;-73
2022/06/22 11:03:02;;;;;;;4.63;1.45;;;;;;;28.14;23.77;100532.31;4998127;28;20054;-72
2022/06/22 11:06:24;;;;;;;5.13;1.33;;;;;;;27.95;24.15;100531.28;5006986;28;20069;-70
2022/06/22 11:09:00;;;;;;;6.68;1.48;;;;;;;28.02;24.23;100526.72;4998358;28;20058;-69
2022/06/22 11:11:36;;;;;;;8.82;1.92;;;;;;;28.14;23.40;100521.50;4995690;28;20053;-68
2022/06/22 11:14:32;;;;;;;5.25;1.02;;;;;;;28.41;23.48;100518.81;5009102;28;20084;-68
2022/06/22 11:17:11;;;;;;;3.25;1.35;;;;;;;28.66;23.88;100527.13;5004161;28;20054;-68
2022/06/22 11:19:53;;;;;;;4.95;1.42;;;;;;;28.51;23.39;100516.53;5008379;28;20473;-71
2022/06/22 11:22:38;;;;;;;6.03;1.63;;;;;;;28.54;23.58;100520.69;5002673;28;20744;-68
2022/06/22 11:25:17;;;;;;;;;;;;;;;28.59;23.63;100531.72;4998400;28;20076;-68
2022/06/22 11:31:27;;;;;;;3.60;1.40;;;;;;;28.72;24.31;100529.81;4999369;28;20042;-67
2022/06/22 11:34:36;;;;;;;4.90;1.20;;;;;;;28.91;24.06;100535.41;4979423;28;20373;-68
2022/06/22 11:37:42;;;;;;;4.72;1.60;;;;;;;29.04;24.30;100532.69;5015710;28;20042;-69
2022/06/22 11:40:46;;;;;;;5.25;1.70;;;;;;;29.32;24.53;100528.84;5007646;28;20380;-69
2022/06/22 11:43:44;;;;;;;4.00;1.35;;;;;;;29.59;24.33;100522.25;5013181;28;20046;-68
2022/06/22 11:46:32;;;;;;;7.28;1.70;;;;;;;29.72;24.87;100521.31;4999316;28;20049;-68
2022/06/22 11:49:22;;;;;;;6.72;1.50;;;;;;;30.00;24.58;100518.22;4995504;28;20475;-68
2022/06/22 11:52:26;;;;;;;3.35;1.30;;;;;;;30.21;24.57;100508.88;4991443;28;20061;-69
2022/06/22 11:55:23;;;;;;;8.05;1.98;;;;;;;30.50;24.17;100505.47;4996128;28;20056;-68
2022/06/22 11:57:53;;;;;;;5.60;2.28;;;;;;;30.50;24.79;100500.03;5014805;28;20065;-69
2022/06/22 12:00:53;;;;;;;7.50;1.70;;;;;;;30.65;24.29;100507.00;5006501;28;20060;-69
2022/06/22 12:03:53;;;;;;;7.60;1.85;;;;;;;30.76;23.42;100496.25;4981473;28;20042;-68
2022/06/22 12:06:39;;;;;;;7.20;2.28;;;;;;;30.73;23.51;100490.44;5001989;28;20054;-68
2022/06/22 12:09:35;;;;;;;5.05;1.95;;;;;;;30.58;24.36;100493.50;5002049;28;20069;-70
2022/06/22 12:12:48;;;;;;;4.13;1.55;;;;;;;30.85;23.63;100485.91;5005947;28;20409;-70
2022/06/22 12:15:16;;;;;;;5.35;1.75;;;;;;;30.92;23.58;100489.38;4981789;28;20065;-71
2022/06/22 12:18:28;;;;;;;7.95;1.38;;;;;;;30.84;22.91;100491.56;5003707;28;20468;-71
2022/06/22 12:21:17;;;;;;;5.63;1.70;;;;;;;30.71;22.15;100493.38;5000728;28;20524;-69
2022/06/22 12:24:02;;;;;;;8.73;1.70;;;;;;;30.66;22.69;100484.19;5001613;28;20057;-69
2022/06/22 12:26:42;;;;;;;2.50;1.60;;;;;;;30.83;23.72;100484.47;5019708;28;20703;-68
2022/06/22 12:29:23;;;;;;;3.83;1.40;;;;;;;30.76;23.39;100485.38;5002701;28;20062;-69
2022/06/22 12:31:53;;;;;;;3.40;1.23;;;;;;;30.74;22.64;100475.78;5007041;28;20061;-69
2022/06/22 12:35:04;;;;;;;6.75;1.50;;;;;;;30.67;22.26;100484.00;4976460;28;20218;-69
2022/06/22 12:37:39;;;;;;;8.88;1.10;;;;;;;30.26;22.09;100482.75;4992231;28;20073;-69
2022/06/22 12:40:19;;;;;;;5.65;1.40;;;;;;;30.34;22.90;100481.59;5004308;28;20054;-69
2022/06/22 12:43:06;;;;;;;5.15;1.55;;;;;;;30.63;22.53;100469.19;5000854;28;20069;-69